Time;durP1;ratioP1;P1;durP2;ratioP2;P2;SDS_P1;SDS_P2;PMS_P1;PMS_P2;Temp;Humidity;BMP_temperature;BMP_pressure;BME280_temperature;BME280_humidity;BME280_pressure;Samples;Min_cycle;Max_cycle;Signal;HPM_P1;HPM_P2
2022/08/01 00:01:45;;;;;;;2.80;2.38;;;18.90;99.90;;;;;;4354844;28;10000199;-71
2022/08/01 00:04:11;;;;;;;4.15;2.30;;;18.90;99.90;;;;;;5060219;28;20020;-71
2022/08/01 00:06:36;;;;;;;3.55;2.60;;;18.90;99.90;;;;;;5063242;28;20478;-71
2022/08/01 00:09:02;;;;;;;3.45;2.22;;;18.90;99.90;;;;;;5055087;28;20024;-71
2022/08/01 00:11:28;;;;;;;4.22;2.45;;;18.90;99.90;;;;;;5071060;28;20085;-72
2022/08/01 00:13:53;;;;;;;2.90;2.60;;;18.90;99.90;;;;;;5078847;28;20021;-72
2022/08/01 00:16:22;;;;;;;3.00;2.70;;;18.80;99.90;;;;;;5071683;28;20507;-71
2022/08/01 00:18:49;;;;;;;3.05;2.85;;;18.90;99.90;;;;;;5066552;28;20029;-72
2022/08/01 00:21:15;;;;;;;3.17;2.45;;;18.90;99.90;;;;;;5066561;28;20095;-72
2022/08/01 00:23:40;;;;;;;2.65;2.45;;;18.90;99.90;;;;;;5093754;28;20117;-71
2022/08/01 00:26:06;;;;;;;4.38;2.95;;;18.80;99.90;;;;;;5062142;28;20028;-71
2022/08/01 00:28:31;;;;;;;3.35;2.78;;;18.80;99.90;;;;;;5063736;28;20075;-71
2022/08/01 00:30:57;;;;;;;3.40;3.08;;;18.90;99.90;;;;;;5078053;28;20523;-71
2022/08/01 00:33:23;;;;;;;5.55;2.90;;;18.90;99.90;;;;;;5052884;28;20117;-71
2022/08/01 00:35:48;;;;;;;3.70;3.40;;;19.00;99.90;;;;;;5070498;28;20496;-71
2022/08/01 00:38:14;;;;;;;4.60;3.20;;;18.90;99.90;;;;;;5071600;28;20063;-71
2022/08/01 00:40:39;;;;;;;4.97;3.55;;;19.00;99.90;;;;;;5062026;28;20529;-71
2022/08/01 00:43:05;;;;;;;5.65;3.40;;;19.00;99.90;;;;;;5056209;28;20017;-71
2022/08/01 00:45:31;;;;;;;4.57;3.63;;;19.00;99.90;;;;;;5081503;28;20081;-71
2022/08/01 00:47:56;;;;;;;4.75;4.22;;;19.00;99.90;;;;;;5067461;28;20143;-71
2022/08/01 00:50:23;;;;;;;6.85;3.85;;;19.00;99.90;;;;;;5052556;28;20146;-71
2022/08/01 00:52:50;;;;;;;4.97;4.00;;;19.00;99.90;;;;;;5064412;28;20441;-71
2022/08/01 00:55:18;;;;;;;4.13;3.75;;;19.00;99.90;;;;;;5054284;28;20033;-71
2022/08/01 00:57:43;;;;;;;3.83;3.53;;;19.00;99.90;;;;;;5052622;28;20028;-71
2022/08/01 01:00:10;;;;;;;4.82;3.80;;;19.00;99.90;;;;;;5064962;28;20016;-71
2022/08/01 01:02:36;;;;;;;5.60;3.80;;;19.00;99.90;;;;;;5063324;28;20032;-71
2022/08/01 01:05:02;;;;;;;4.43;4.03;;;19.10;99.90;;;;;;5053036;28;20039;-72
2022/08/01 01:07:46;;;;;;;4.30;3.90;;;19.00;99.90;;;;;;5051682;28;20570;-72
2022/08/01 01:10:35;;;;;;;3.88;3.58;;;19.00;99.90;;;;;;5065724;28;20803;-72
2022/08/01 01:13:15;;;;;;;6.85;4.28;;;19.10;99.90;;;;;;5068278;28;20617;-72
2022/08/01 01:15:56;;;;;;;6.38;4.03;;;19.10;99.90;;;;;;5068572;28;20040;-72
2022/08/01 01:18:32;;;;;;;6.32;4.50;;;19.10;99.90;;;;;;5058577;28;20438;-71
2022/08/01 01:21:02;;;;;;;4.10;3.78;;;19.10;99.90;;;;;;5056159;28;20592;-71
2022/08/01 01:23:45;;;;;;;6.45;4.30;;;19.10;99.90;;;;;;5054493;28;20040;-71
2022/08/01 01:26:38;;;;;;;4.68;4.28;;;19.10;99.90;;;;;;5066386;28;20131;-72
2022/08/01 01:29:26;;;;;;;4.30;3.83;;;19.10;99.90;;;;;;5049784;28;20032;-71
2022/08/01 01:32:03;;;;;;;4.47;4.00;;;19.10;99.90;;;;;;5055180;28;20036;-71
2022/08/01 01:34:34;;;;;;;7.10;3.80;;;19.10;99.90;;;;;;5062619;28;20041;-72
2022/08/01 01:37:02;;;;;;;4.78;4.03;;;19.10;99.90;;;;;;5055539;28;20041;-71
2022/08/01 01:39:31;;;;;;;5.05;3.30;;;19.10;99.90;;;;;;5056253;28;20328;-71
2022/08/01 01:41:58;;;;;;;5.03;3.22;;;19.10;99.90;;;;;;5049663;28;20107;-72
2022/08/01 01:44:26;;;;;;;3.08;2.70;;;19.00;99.90;;;;;;5070200;28;20025;-71
2022/08/01 01:46:52;;;;;;;3.60;3.30;;;19.00;99.90;;;;;;5059329;28;20286;-71
2022/08/01 01:49:23;;;;;;;3.17;2.95;;;19.00;99.90;;;;;;5052363;28;20023;-71
2022/08/01 01:51:50;;;;;;;3.95;2.95;;;18.90;99.90;;;;;;5051520;28;20464;-71
2022/08/01 01:54:16;;;;;;;3.80;2.58;;;18.90;99.90;;;;;;5051767;28;20035;-71
2022/08/01 01:56:48;;;;;;;2.72;2.50;;;18.90;99.90;;;;;;5050587;28;20040;-71
2022/08/01 01:59:19;;;;;;;3.08;2.70;;;18.80;99.90;;;;;;5047257;28;20400;-71
2022/08/01 02:01:48;;;;;;;2.70;2.50;;;18.80;99.90;;;;;;5055809;28;20032;-71
2022/08/01 02:04:14;;;;;;;3.72;2.90;;;18.90;99.90;;;;;;5059775;28;20032;-71
2022/08/01 02:06:40;;;;;;;5.60;3.65;;;18.90;99.90;;;;;;5066618;28;20017;-71
2022/08/01 02:09:08;;;;;;;5.78;4.22;;;18.90;99.90;;;;;;5041911;28;20124;-71
2022/08/01 02:11:36;;;;;;;8.50;4.40;;;18.90;99.90;;;;;;5053343;28;20285;-71
2022/08/01 02:14:03;;;;;;;4.75;3.60;;;18.90;99.90;;;;;;5060490;28;20430;-72
2022/08/01 02:16:33;;;;;;;5.63;3.75;;;18.90;99.90;;;;;;5077612;28;20486;-72
2022/08/01 02:18:59;;;;;;;4.28;3.70;;;19.00;99.90;;;;;;5060079;28;20543;-72
2022/08/01 02:21:29;;;;;;;4.65;3.85;;;18.90;99.90;;;;;;5067567;28;20111;-72
2022/08/01 02:24:08;;;;;;;7.60;4.45;;;18.90;99.90;;;;;;5053598;28;20124;-72
2022/08/01 02:26:36;;;;;;;5.03;4.15;;;18.90;99.90;;;;;;5051608;28;20493;-72
2022/08/01 02:29:06;;;;;;;8.05;4.38;;;18.90;99.90;;;;;;5049472;28;20507;-72
2022/08/01 02:31:34;;;;;;;7.15;3.75;;;18.90;99.90;;;;;;5068459;28;20036;-71
2022/08/01 02:34:05;;;;;;;6.88;4.45;;;18.80;99.90;;;;;;5063762;28;20032;-72
2022/08/01 02:36:35;;;;;;;5.57;4.20;;;18.80;99.90;;;;;;5064845;28;20024;-72
2022/08/01 02:39:03;;;;;;;4.82;3.88;;;18.80;99.90;;;;;;5046198;28;20494;-72
2022/08/01 02:41:31;;;;;;;6.10;4.57;;;18.80;99.90;;;;;;5059115;28;20062;-72
2022/08/01 02:44:01;;;;;;;5.05;4.45;;;18.80;99.90;;;;;;5059698;28;20031;-72
2022/08/01 02:46:36;;;;;;;9.60;5.15;;;18.70;99.90;;;;;;5073057;28;20032;-72
2022/08/01 02:49:03;;;;;;;10.50;5.50;;;18.70;99.90;;;;;;5062196;28;20091;-72
2022/08/01 02:51:31;;;;;;;5.03;4.60;;;18.70;99.90;;;;;;5059917;28;20037;-72
2022/08/01 02:53:59;;;;;;;7.75;5.43;;;18.60;99.90;;;;;;5061585;28;20024;-72
2022/08/01 02:56:34;;;;;;;6.18;5.30;;;18.70;99.90;;;;;;5061296;28;20021;-71
2022/08/01 02:59:21;;;;;;;8.50;5.30;;;18.60;99.90;;;;;;5064398;28;20020;-71
2022/08/01 03:01:47;;;;;;;6.53;5.47;;;18.70;99.90;;;;;;5047380;28;20382;-71
2022/08/01 03:04:17;;;;;;;6.63;5.45;;;18.60;99.90;;;;;;5046923;28;20424;-71
2022/08/01 03:06:44;;;;;;;7.30;5.95;;;18.60;99.90;;;;;;5075589;28;20162;-71
2022/08/01 03:09:10;;;;;;;6.38;5.20;;;18.60;99.90;;;;;;5063540;28;20550;-71
2022/08/01 03:11:39;;;;;;;5.95;5.35;;;18.60;99.90;;;;;;5055938;28;20436;-71
2022/08/01 03:14:08;;;;;;;7.95;5.68;;;18.60;99.90;;;;;;5061422;28;20107;-71
2022/08/01 03:16:36;;;;;;;8.55;5.38;;;18.50;99.90;;;;;;5065161;28;20033;-71
2022/08/01 03:19:03;;;;;;;7.40;5.40;;;18.60;99.90;;;;;;5053099;28;20035;-71
2022/08/01 03:21:30;;;;;;;6.25;5.35;;;18.60;99.90;;;;;;5056995;28;20033;-71
2022/08/01 03:23:58;;;;;;;5.13;4.70;;;18.60;99.90;;;;;;5053908;28;20043;-71
2022/08/01 03:26:28;;;;;;;5.63;5.10;;;18.60;99.90;;;;;;5063694;28;20036;-71
2022/08/01 03:28:58;;;;;;;7.78;5.28;;;18.60;99.90;;;;;;5046612;28;20037;-71
2022/08/01 03:31:25;;;;;;;6.70;4.90;;;18.60;99.90;;;;;;5051573;28;20025;-71
2022/08/01 03:33:51;;;;;;;5.85;5.25;;;18.60;99.90;;;;;;5063082;28;20025;-71
2022/08/01 03:36:23;;;;;;;6.47;4.45;;;18.60;99.90;;;;;;5051575;28;20024;-71
2022/08/01 03:38:51;;;;;;;8.68;5.10;;;18.60;99.90;;;;;;5060966;28;20055;-71
2022/08/01 03:41:20;;;;;;;5.80;4.40;;;18.60;99.90;;;;;;5062022;28;20020;-71
2022/08/01 03:43:58;;;;;;;5.38;4.30;;;18.60;99.90;;;;;;5054111;28;20024;-71
2022/08/01 03:46:42;;;;;;;8.57;5.03;;;18.60;99.90;;;;;;5046783;28;20599;-71
2022/08/01 03:49:14;;;;;;;5.47;3.92;;;18.60;99.90;;;;;;5050298;28;20048;-72
2022/08/01 03:51:40;;;;;;;4.85;4.10;;;18.60;99.90;;;;;;5056524;28;20116;-71
2022/08/01 03:54:07;;;;;;;4.60;4.20;;;18.70;99.90;;;;;;5049677;28;20035;-71
2022/08/01 03:56:34;;;;;;;4.93;4.43;;;18.70;99.90;;;;;;5057409;28;20511;-71
2022/08/01 03:59:03;;;;;;;6.20;4.75;;;18.70;99.90;;;;;;5050179;28;20477;-71
2022/08/01 04:01:30;;;;;;;5.00;4.50;;;18.70;99.90;;;;;;5050003;28;20048;-71
2022/08/01 04:03:59;;;;;;;4.75;4.18;;;18.80;99.90;;;;;;5051024;28;20035;-72
2022/08/01 04:06:24;;;;;;;5.72;4.22;;;18.70;99.90;;;;;;5052419;28;20562;-71
2022/08/01 04:08:57;;;;;;;4.40;4.00;;;18.70;99.90;;;;;;5046092;28;20041;-71
2022/08/01 04:11:27;;;;;;;7.30;4.77;;;18.80;99.90;;;;;;5062327;28;20037;-71
2022/08/01 04:13:53;;;;;;;7.18;5.00;;;18.80;99.90;;;;;;5060839;28;20505;-71
2022/08/01 04:16:20;;;;;;;6.05;4.70;;;18.80;99.90;;;;;;5059411;28;20028;-71
2022/08/01 04:18:46;;;;;;;6.45;4.57;;;18.80;99.90;;;;;;5047828;28;20021;-72
2022/08/01 04:21:13;;;;;;;5.13;4.40;;;18.70;99.90;;;;;;5045833;28;20619;-71
2022/08/01 04:23:41;;;;;;;6.72;4.45;;;18.80;99.90;;;;;;5046647;28;20068;-71
2022/08/01 04:26:08;;;;;;;8.05;4.95;;;18.70;99.90;;;;;;5044530;28;20484;-71
2022/08/01 04:28:36;;;;;;;5.70;4.60;;;18.70;99.90;;;;;;5052160;28;20403;-71
2022/08/01 04:31:04;;;;;;;5.03;4.57;;;18.80;99.90;;;;;;5050295;28;20020;-71
2022/08/01 04:33:32;;;;;;;7.38;4.80;;;18.80;99.90;;;;;;5061228;28;20119;-71
2022/08/01 04:36:00;;;;;;;5.50;4.55;;;18.80;99.90;;;;;;5055866;28;20028;-71
2022/08/01 04:38:28;;;;;;;5.00;4.43;;;18.80;99.90;;;;;;5061178;28;20043;-71
2022/08/01 04:40:54;;;;;;;5.13;4.63;;;18.80;99.90;;;;;;5062721;28;20024;-71
2022/08/01 04:43:20;;;;;;;5.10;4.68;;;18.90;99.90;;;;;;5061787;28;20047;-71
2022/08/01 04:45:47;;;;;;;6.18;5.00;;;19.00;99.90;;;;;;5045197;28;20420;-70
2022/08/01 04:48:16;;;;;;;7.57;5.05;;;19.00;99.90;;;;;;5047621;28;20041;-71
2022/08/01 04:50:42;;;;;;;5.32;4.55;;;19.00;99.90;;;;;;5056036;28;20499;-71
2022/08/01 04:53:18;;;;;;;5.20;4.45;;;19.00;99.90;;;;;;5054601;28;20040;-71
2022/08/01 04:55:45;;;;;;;6.10;4.45;;;19.10;99.90;;;;;;5063703;28;20020;-72
2022/08/01 04:58:12;;;;;;;7.32;4.38;;;19.10;99.90;;;;;;5057300;28;20501;-72
2022/08/01 05:00:37;;;;;;;5.55;5.05;;;19.10;99.90;;;;;;5068196;28;20040;-71
2022/08/01 05:03:03;;;;;;;7.32;4.85;;;19.10;99.90;;;;;;5055791;28;20028;-72
2022/08/01 05:05:30;;;;;;;5.28;4.88;;;19.10;99.90;;;;;;5076458;28;20042;-71
2022/08/01 05:07:56;;;;;;;5.05;4.57;;;19.20;99.90;;;;;;5054260;28;20293;-71
2022/08/01 05:10:22;;;;;;;11.30;5.53;;;19.20;99.90;;;;;;5062205;28;20115;-71
2022/08/01 05:12:48;;;;;;;6.65;5.00;;;19.30;99.90;;;;;;5062368;28;20562;-71
2022/08/01 05:15:13;;;;;;;5.20;4.50;;;19.30;99.90;;;;;;5070860;28;20036;-71
2022/08/01 05:17:39;;;;;;;4.75;4.32;;;19.30;99.90;;;;;;5060818;28;20497;-71
2022/08/01 05:20:06;;;;;;;4.43;4.10;;;19.20;99.90;;;;;;5045851;28;20032;-71
2022/08/01 05:22:31;;;;;;;5.53;5.03;;;19.20;99.90;;;;;;5054957;28;20028;-71
2022/08/01 05:24:59;;;;;;;8.52;5.63;;;19.30;99.90;;;;;;5086722;28;20050;-71
2022/08/01 05:27:25;;;;;;;9.32;6.00;;;19.30;99.90;;;;;;5060603;28;20495;-71
2022/08/01 05:29:51;;;;;;;9.45;6.25;;;19.30;99.90;;;;;;5044474;28;20033;-70
2022/08/01 05:32:17;;;;;;;8.15;5.60;;;19.30;99.90;;;;;;5054752;28;20366;-71
2022/08/01 05:34:43;;;;;;;8.68;5.18;;;;;;;;;;5051200;28;20040;-70
2022/08/01 05:37:09;;;;;;;8.30;4.80;;;;;;;;;;5061435;28;20352;-70
2022/08/01 05:39:36;;;;;;;5.45;4.55;;;;;;;;;;5047346;28;20044;-70
2022/08/01 05:42:02;;;;;;;7.03;4.72;;;;;;;;;;5069550;28;20489;-70
2022/08/01 05:44:28;;;;;;;5.47;4.13;;;;;;;;;;5062887;28;20072;-71
2022/08/01 05:46:54;;;;;;;8.38;4.50;;;;;;;;;;5067406;28;20101;-71
2022/08/01 05:49:20;;;;;;;8.93;3.92;;;;;;;;;;5056736;28;20452;-71
2022/08/01 05:51:46;;;;;;;5.28;3.90;;;;;;;;;;5059333;28;20469;-71
2022/08/01 05:54:12;;;;;;;4.47;3.60;;;;;;;;;;5058020;28;20035;-70
2022/08/01 05:56:38;;;;;;;5.55;3.55;;;;;;;;;;5062987;28;20481;-70
2022/08/01 05:59:04;;;;;;;3.10;2.80;;;;;;;;;;5048635;28;20317;-70
2022/08/01 06:01:30;;;;;;;4.93;2.50;;;;;;;;;;5048335;28;20039;-70
2022/08/01 06:03:56;;;;;;;2.60;2.40;;;;;;;;;;5056733;28;20025;-70
2022/08/01 06:06:22;;;;;;;2.95;2.00;;;19.20;99.90;;;;;;5059856;28;20021;-70
2022/08/01 06:08:48;;;;;;;3.53;2.20;;;19.20;99.90;;;;;;5065179;28;20445;-70
2022/08/01 06:11:14;;;;;;;2.15;1.80;;;19.10;99.90;;;;;;5061549;28;20050;-70
2022/08/01 06:13:39;;;;;;;2.00;1.90;;;19.10;99.90;;;;;;5052795;28;20373;-70
2022/08/01 06:16:05;;;;;;;2.05;1.60;;;19.10;99.90;;;;;;5046808;28;20036;-70
2022/08/01 06:18:31;;;;;;;2.78;1.67;;;19.10;99.90;;;;;;5054758;28;20132;-70
2022/08/01 06:20:57;;;;;;;3.80;1.90;;;19.10;99.90;;;;;;5055999;28;20025;-71
2022/08/01 06:23:23;;;;;;;1.85;1.75;;;19.10;99.90;;;;;;5059040;28;20366;-70
2022/08/01 06:25:52;;;;;;;4.88;2.10;;;19.20;99.90;;;;;;5063929;28;20035;-70
2022/08/01 06:28:18;;;;;;;3.53;1.83;;;19.20;99.90;;;;;;5053528;28;20013;-70
2022/08/01 06:30:44;;;;;;;3.25;1.90;;;19.30;99.90;;;;;;5050427;28;20477;-70
2022/08/01 06:33:09;;;;;;;2.15;1.95;;;19.30;99.90;;;;;;5059755;28;20060;-73
2022/08/01 06:35:35;;;;;;;1.92;1.60;;;19.30;99.90;;;;;;5055333;28;20597;-73
2022/08/01 06:38:02;;;;;;;3.42;2.00;;;19.40;99.90;;;;;;5060022;28;20087;-72
2022/08/01 06:40:28;;;;;;;3.70;1.60;;;19.50;99.90;;;;;;5059026;28;20024;-73
2022/08/01 06:42:53;;;;;;;2.97;1.80;;;19.60;99.90;;;;;;5070994;28;20408;-72
2022/08/01 06:45:22;;;;;;;1.92;1.83;;;19.70;99.90;;;;;;5052301;28;20037;-72
2022/08/01 06:47:48;;;;;;;3.90;1.83;;;19.70;99.90;;;;;;5050485;28;20086;-72
2022/08/01 06:50:14;;;;;;;2.00;1.85;;;19.80;99.90;;;;;;5062768;28;20044;-72
2022/08/01 06:52:40;;;;;;;5.18;2.03;;;19.90;99.90;;;;;;5053457;28;20037;-72
2022/08/01 06:55:07;;;;;;;2.70;1.90;;;20.10;99.90;;;;;;5047839;28;20052;-72
2022/08/01 06:57:32;;;;;;;3.58;1.75;;;20.10;99.90;;;;;;5053022;28;20440;-71
2022/08/01 07:00:08;;;;;;;1.70;1.60;;;20.10;99.90;;;;;;5048567;28;20021;-71
2022/08/01 07:02:34;;;;;;;1.85;1.60;;;20.20;99.90;;;;;;5059447;28;20101;-71
2022/08/01 07:05:00;;;;;;;1.83;1.70;;;20.20;99.90;;;;;;5065631;28;20062;-71
2022/08/01 07:07:26;;;;;;;3.05;1.60;;;20.20;99.90;;;;;;5055154;28;20108;-71
2022/08/01 07:09:52;;;;;;;2.28;1.80;;;20.20;99.90;;;;;;5056365;28;20506;-71
2022/08/01 07:12:18;;;;;;;3.05;1.92;;;20.30;99.90;;;;;;5062697;28;20111;-71
2022/08/01 07:14:43;;;;;;;2.67;2.05;;;20.30;99.90;;;;;;5059837;28;20033;-71
2022/08/01 07:17:09;;;;;;;3.25;1.95;;;20.20;99.90;;;;;;5050122;28;20155;-71
2022/08/01 07:19:35;;;;;;;2.50;2.25;;;20.20;99.90;;;;;;5053167;28;20508;-72
2022/08/01 07:22:00;;;;;;;2.38;2.20;;;20.10;99.90;;;;;;5058588;28;20056;-71
2022/08/01 07:24:26;;;;;;;5.47;3.05;;;20.10;99.90;;;;;;5062543;28;20028;-71
2022/08/01 07:26:53;;;;;;;3.40;3.10;;;20.00;99.90;;;;;;5053272;28;20029;-71
2022/08/01 07:29:20;;;;;;;3.40;2.83;;;20.00;99.90;;;;;;5054717;28;20484;-71
2022/08/01 07:31:46;;;;;;;3.17;2.63;;;20.10;99.90;;;;;;5048680;28;20250;-71
2022/08/01 07:34:11;;;;;;;3.92;3.00;;;20.10;99.90;;;;;;5050089;28;20035;-71
2022/08/01 07:36:37;;;;;;;5.18;3.10;;;20.20;99.90;;;;;;5062744;28;20029;-71
2022/08/01 07:39:02;;;;;;;3.60;3.28;;;20.30;99.90;;;;;;5061684;28;20048;-72
2022/08/01 07:41:28;;;;;;;3.50;3.25;;;20.40;99.90;;;;;;5063187;28;20028;-71
2022/08/01 07:43:53;;;;;;;4.45;3.25;;;20.50;99.90;;;;;;5047832;28;20492;-71
2022/08/01 07:46:19;;;;;;;4.32;3.30;;;20.60;99.90;;;;;;5065461;28;20025;-71
2022/08/01 07:48:45;;;;;;;3.72;2.83;;;20.70;99.90;;;;;;5058188;28;20028;-71
2022/08/01 07:51:11;;;;;;;3.30;3.00;;;20.80;99.90;;;;;;5048191;28;20065;-71
2022/08/01 07:53:37;;;;;;;3.55;2.47;;;20.80;99.90;;;;;;5045151;28;20036;-72
2022/08/01 07:56:05;;;;;;;4.60;2.80;;;21.00;99.90;;;;;;5046535;28;20032;-71
2022/08/01 07:58:31;;;;;;;3.22;2.60;;;21.10;99.90;;;;;;5045290;28;20417;-71
2022/08/01 08:00:57;;;;;;;6.13;3.25;;;21.20;99.90;;;;;;5053870;28;20484;-71
2022/08/01 08:03:23;;;;;;;6.65;2.88;;;21.30;99.90;;;;;;5065328;28;20044;-71
2022/08/01 08:05:48;;;;;;;3.08;2.60;;;21.50;99.90;;;;;;5063285;28;20028;-71
2022/08/01 08:08:15;;;;;;;5.65;2.90;;;21.70;99.90;;;;;;5049120;28;20071;-71
2022/08/01 08:10:41;;;;;;;3.28;2.83;;;21.90;99.90;;;;;;5055522;28;20028;-71
2022/08/01 08:13:06;;;;;;;3.85;2.40;;;21.90;99.90;;;;;;5063563;28;20209;-71
2022/08/01 08:15:32;;;;;;;4.47;2.47;;;22.10;99.90;;;;;;5062738;28;20468;-71
2022/08/01 08:17:58;;;;;;;2.72;2.30;;;22.40;99.90;;;;;;5054321;28;20028;-71
2022/08/01 08:20:26;;;;;;;2.33;2.03;;;22.80;99.90;;;;;;5060322;28;20020;-71
2022/08/01 08:22:53;;;;;;;2.22;2.03;;;23.10;99.90;;;;;;5066358;28;20033;-71
2022/08/01 08:25:19;;;;;;;2.38;2.17;;;23.20;99.90;;;;;;5069514;28;20027;-71
2022/08/01 08:27:45;;;;;;;2.70;2.25;;;23.30;99.90;;;;;;5068624;28;20025;-71
2022/08/01 08:30:12;;;;;;;3.30;1.90;;;23.30;99.90;;;;;;5055023;28;20021;-71
2022/08/01 08:32:37;;;;;;;4.60;1.95;;;23.20;99.90;;;;;;5063223;28;20312;-71
2022/08/01 08:35:04;;;;;;;3.58;2.03;;;23.10;99.90;;;;;;5051593;28;20063;-71
2022/08/01 08:37:30;;;;;;;3.47;2.38;;;23.20;99.90;;;;;;5053210;28;20800;-71
2022/08/01 08:39:56;;;;;;;3.13;1.85;;;23.20;99.90;;;;;;5063348;28;20429;-71
2022/08/01 08:42:22;;;;;;;2.65;2.13;;;23.30;99.90;;;;;;5047361;28;20044;-72
2022/08/01 08:44:47;;;;;;;2.50;1.98;;;23.30;99.90;;;;;;5050965;28;20516;-71
2022/08/01 08:47:14;;;;;;;2.13;1.80;;;23.30;99.90;;;;;;5048617;28;20029;-71
2022/08/01 08:49:43;;;;;;;3.53;2.10;;;23.30;99.90;;;;;;5052289;28;20507;-71
2022/08/01 08:52:09;;;;;;;4.45;2.28;;;23.40;99.90;;;;;;5061180;28;20040;-71
2022/08/01 08:54:37;;;;;;;3.20;2.28;;;23.60;99.90;;;;;;5061548;28;20037;-71
2022/08/01 08:57:03;;;;;;;2.88;2.00;;;23.50;99.90;;;;;;5049945;28;20025;-71
2022/08/01 08:59:29;;;;;;;3.22;2.15;;;23.50;99.90;;;;;;5044928;28;20452;-71
2022/08/01 09:01:55;;;;;;;2.20;1.98;;;;;;;;;;5064363;28;20017;-71
2022/08/01 09:04:24;;;;;;;2.45;2.25;;;23.40;99.90;;;;;;5060844;28;20085;-71
2022/08/01 09:06:50;;;;;;;2.08;1.98;;;23.50;99.90;;;;;;5067097;28;20021;-72
2022/08/01 09:09:16;;;;;;;3.28;2.10;;;23.70;99.90;;;;;;5049865;28;20052;-71
2022/08/01 09:11:42;;;;;;;2.13;1.92;;;24.00;99.90;;;;;;5054981;28;20032;-71
2022/08/01 09:14:12;;;;;;;2.28;1.83;;;24.00;99.90;;;;;;5048856;28;20244;-71
2022/08/01 09:16:41;;;;;;;2.28;1.88;;;24.00;99.90;;;;;;5060081;28;20078;-71
2022/08/01 09:19:18;;;;;;;2.60;2.40;;;24.20;99.90;;;;;;5060915;28;20021;-71
2022/08/01 09:21:57;;;;;;;3.15;2.38;;;24.40;99.90;;;;;;5058719;28;20058;-71
2022/08/01 09:24:26;;;;;;;3.08;2.10;;;24.80;99.90;;;;;;5050542;28;20601;-70
2022/08/01 09:26:52;;;;;;;2.17;2.00;;;24.90;99.90;;;;;;5048762;28;20021;-71
2022/08/01 09:29:21;;;;;;;3.75;2.00;;;25.10;99.90;;;;;;5056278;28;20033;-71
2022/08/01 09:31:49;;;;;;;2.10;1.85;;;25.40;99.90;;;;;;5057495;28;20059;-71
2022/08/01 09:34:16;;;;;;;2.10;1.90;;;25.50;99.90;;;;;;5047943;28;20032;-71
2022/08/01 09:36:56;;;;;;;1.80;1.70;;;25.50;99.90;;;;;;5047075;28;20151;-71
2022/08/01 09:39:31;;;;;;;2.10;2.00;;;25.40;99.90;;;;;;5056539;28;20637;-71
2022/08/01 09:41:59;;;;;;;2.13;1.90;;;25.40;99.90;;;;;;5049583;28;20262;-71
2022/08/01 09:44:42;;;;;;;2.50;1.92;;;25.60;99.90;;;;;;5048478;28;20021;-70
2022/08/01 09:47:08;;;;;;;3.40;2.30;;;25.70;99.90;;;;;;5046993;28;20017;-71
2022/08/01 09:49:36;;;;;;;3.00;2.08;;;25.60;99.90;;;;;;5063117;28;20025;-71
2022/08/01 09:52:16;;;;;;;2.50;2.40;;;25.40;99.90;;;;;;5049567;28;20188;-71
2022/08/01 09:54:52;;;;;;;2.10;1.90;;;25.10;99.90;;;;;;5056455;28;20037;-71
2022/08/01 09:57:19;;;;;;;2.40;2.03;;;24.90;99.90;;;;;;5064942;28;20103;-71
2022/08/01 09:59:47;;;;;;;2.30;2.10;;;24.80;99.90;;;;;;5045911;28;20033;-71
2022/08/01 10:02:26;;;;;;;2.50;2.30;;;25.00;99.90;;;;;;5055255;28;20020;-71
2022/08/01 10:04:52;;;;;;;2.40;2.20;;;25.40;99.90;;;;;;5062097;28;20039;-71
2022/08/01 10:07:18;;;;;;;2.33;2.13;;;25.70;99.90;;;;;;5051671;28;20032;-72
2022/08/01 10:09:45;;;;;;;3.90;2.60;;;26.00;99.90;;;;;;5064300;28;20245;-72
2022/08/01 10:12:14;;;;;;;3.15;2.20;;;26.00;99.90;;;;;;5060691;28;20378;-71
2022/08/01 10:14:41;;;;;;;4.30;2.20;;;26.00;99.90;;;;;;5064629;28;20493;-71
2022/08/01 10:17:11;;;;;;;2.50;2.30;;;25.90;99.90;;;;;;5055307;28;20035;-71
2022/08/01 10:19:41;;;;;;;3.85;2.47;;;25.90;99.90;;;;;;5055087;28;20120;-71
2022/08/01 10:22:08;;;;;;;2.65;2.45;;;26.00;99.90;;;;;;5054790;28;20554;-72
2022/08/01 10:24:39;;;;;;;2.30;2.20;;;26.30;99.90;;;;;;5067187;28;20024;-71
2022/08/01 10:27:08;;;;;;;2.33;2.22;;;26.50;99.90;;;;;;5066751;28;20194;-71
2022/08/01 10:29:37;;;;;;;2.67;2.47;;;26.70;99.90;;;;;;5065164;28;20488;-71
2022/08/01 10:32:06;;;;;;;2.88;2.67;;;26.60;99.90;;;;;;5058831;28;20040;-71
2022/08/01 10:34:34;;;;;;;3.10;2.60;;;26.50;99.90;;;;;;5056982;28;20099;-71
2022/08/01 10:37:00;;;;;;;3.10;2.90;;;26.30;99.90;;;;;;5057705;28;20057;-71
2022/08/01 10:39:29;;;;;;;2.70;2.50;;;25.90;99.90;;;;;;5050403;28;20029;-71
2022/08/01 10:41:55;;;;;;;3.30;3.10;;;25.90;99.90;;;;;;5065173;28;20028;-71
2022/08/01 10:44:23;;;;;;;3.75;2.97;;;26.10;99.90;;;;;;5066261;28;20658;-71
2022/08/01 10:46:52;;;;;;;3.13;2.90;;;26.20;99.90;;;;;;5061535;28;20086;-71
2022/08/01 10:49:22;;;;;;;4.55;3.22;;;26.10;99.90;;;;;;5049810;28;20025;-71
2022/08/01 10:51:48;;;;;;;3.30;2.97;;;25.80;99.90;;;;;;5048319;28;20044;-71
2022/08/01 10:54:14;;;;;;;2.72;2.53;;;25.80;99.90;;;;;;5062702;28;20037;-71
2022/08/01 10:56:44;;;;;;;3.70;2.80;;;25.60;99.90;;;;;;5057055;28;20140;-71
2022/08/01 10:59:13;;;;;;;3.25;2.95;;;25.70;99.90;;;;;;5049225;28;20024;-72
2022/08/01 11:01:39;;;;;;;4.68;3.40;;;25.90;99.90;;;;;;5048298;28;20098;-71
2022/08/01 11:04:11;;;;;;;3.20;2.90;;;26.00;99.90;;;;;;5046707;28;20025;-72
2022/08/01 11:06:39;;;;;;;3.10;2.90;;;26.10;99.90;;;;;;5047355;28;20029;-72
2022/08/01 11:09:20;;;;;;;3.35;3.00;;;26.40;99.90;;;;;;5063743;28;20054;-72
2022/08/01 11:12:04;;;;;;;3.80;3.17;;;26.70;99.60;;;;;;5066123;28;20103;-72
2022/08/01 11:14:31;;;;;;;2.88;2.67;;;26.90;99.20;;;;;;5049442;28;20375;-71
2022/08/01 11:17:16;;;;;;;3.22;3.03;;;27.00;96.70;;;;;;5045841;28;20021;-71
2022/08/01 11:20:11;;;;;;;3.33;2.80;;;27.10;97.30;;;;;;5045390;28;20554;-72
2022/08/01 11:23:01;;;;;;;2.70;2.50;;;27.10;96.80;;;;;;5047221;28;20036;-72
2022/08/01 11:25:27;;;;;;;2.60;2.45;;;26.70;97.90;;;;;;5047522;28;20435;-72
2022/08/01 11:28:18;;;;;;;5.55;2.80;;;26.40;98.10;;;;;;5051269;28;20222;-72
2022/08/01 11:30:43;;;;;;;2.35;2.25;;;26.40;98.40;;;;;;5046246;28;20075;-72
2022/08/01 11:33:10;;;;;;;2.20;2.10;;;26.50;97.60;;;;;;5046058;28;20060;-72
2022/08/01 11:35:36;;;;;;;2.38;2.20;;;26.70;98.20;;;;;;5046062;28;20060;-72
2022/08/01 11:38:24;;;;;;;2.45;2.22;;;26.90;98.40;;;;;;5046760;28;20037;-72
2022/08/01 11:41:16;;;;;;;2.15;2.05;;;27.00;96.40;;;;;;5054812;28;20715;-71
2022/08/01 11:43:54;;;;;;;4.20;2.10;;;27.10;96.00;;;;;;5046529;28;20036;-72
2022/08/01 11:46:20;;;;;;;3.05;2.10;;;27.40;96.70;;;;;;5046993;28;20052;-71
2022/08/01 11:49:05;;;;;;;2.00;1.90;;;27.30;94.00;;;;;;5047384;28;20033;-71
2022/08/01 11:51:32;;;;;;;2.40;2.20;;;27.30;94.60;;;;;;5064675;28;20107;-72
2022/08/01 11:53:58;;;;;;;2.53;2.33;;;27.20;96.00;;;;;;5046595;28;20493;-71
2022/08/01 11:56:24;;;;;;;2.80;2.13;;;27.20;96.70;;;;;;5056524;28;20044;-73
2022/08/01 11:58:59;;;;;;;4.30;1.73;;;26.90;95.30;;;;;;5050139;28;20779;-73
2022/08/01 12:01:25;;;;;;;2.38;1.73;;;26.70;97.50;;;;;;5044572;28;20089;-72
2022/08/01 12:03:55;;;;;;;1.50;1.40;;;26.50;97.90;;;;;;5049726;28;20036;-72
2022/08/01 12:06:30;;;;;;;1.45;1.40;;;26.40;97.50;;;;;;5061839;28;20023;-72
2022/08/01 12:09:15;;;;;;;3.05;1.60;;;26.60;97.90;;;;;;5055142;28;20489;-72
2022/08/01 12:11:41;;;;;;;1.38;1.27;;;26.70;97.50;;;;;;5050621;28;20492;-72
2022/08/01 12:14:06;;;;;;;1.80;1.70;;;26.70;96.20;;;;;;5058287;28;20035;-72
2022/08/01 12:16:32;;;;;;;2.28;2.10;;;26.80;96.90;;;;;;5051829;28;20618;-72
2022/08/01 12:18:59;;;;;;;2.78;2.17;;;26.80;96.40;;;;;;5045473;28;20032;-72
2022/08/01 12:21:24;;;;;;;2.20;2.00;;;26.70;95.30;;;;;;5044805;28;20666;-72
2022/08/01 12:24:08;;;;;;;2.20;2.00;;;26.80;95.20;;;;;;5053673;28;20053;-72
2022/08/01 12:26:41;;;;;;;2.17;2.08;;;27.00;94.50;;;;;;5045865;28;20029;-72
2022/08/01 12:29:07;;;;;;;2.10;1.90;;;27.00;93.70;;;;;;5049639;28;20033;-73
2022/08/01 12:31:35;;;;;;;2.00;1.80;;;26.90;96.70;;;;;;5042241;28;20028;-72
2022/08/01 12:34:30;;;;;;;2.40;2.20;;;26.70;95.00;;;;;;5050326;28;20032;-72
2022/08/01 12:36:58;;;;;;;3.28;2.30;;;26.90;95.80;;;;;;5061737;28;20021;-72
2022/08/01 12:39:31;;;;;;;2.08;1.88;;;27.30;95.10;;;;;;5056226;28;20032;-72
2022/08/01 12:41:56;;;;;;;2.60;1.15;;;27.40;93.20;;;;;;5056238;28;20112;-72
2022/08/01 12:44:22;;;;;;;0.90;0.90;;;27.10;94.30;;;;;;5060059;28;20119;-72
2022/08/01 12:46:48;;;;;;;1.00;0.93;;;26.70;95.90;;;;;;5049160;28;20481;-72
2022/08/01 12:49:14;;;;;;;0.98;0.73;;;26.40;99.90;;;;;;5060861;28;20409;-71
2022/08/01 12:51:40;;;;;;;0.80;0.80;;;26.40;99.90;;;;;;5069378;28;20043;-72
2022/08/01 12:54:09;;;;;;;0.70;0.70;;;26.50;99.90;;;;;;4720663;28;10000066;-71
2022/08/01 12:56:35;;;;;;;2.22;0.63;;;26.60;99.90;;;;;;5048404;28;20037;-71
2022/08/01 12:59:01;;;;;;;2.92;0.50;;;26.60;99.90;;;;;;5074731;28;20040;-71